Time;durP1;ratioP1;P1;durP2;ratioP2;P2;SDS_P1;SDS_P2;PMS_P1;PMS_P2;Temp;Humidity;BMP_temperature;BMP_pressure;BME280_temperature;BME280_humidity;BME280_pressure;Samples;Min_cycle;Max_cycle;Signal;HPM_P1;HPM_P2
2022/03/11 00:01:14;;;;;;;78.85;50.55;;;;;;;;;;5033978;28;20438;-73
2022/03/11 00:03:40;;;;;;;72.03;47.35;;;;;;;;;;5034692;28;20017;-73
2022/03/11 00:06:06;;;;;;;76.03;50.17;;;;;;;;;;5034350;28;20025;-73
2022/03/11 00:08:33;;;;;;;83.57;49.08;;;;;;;;;;5034320;28;20022;-73
2022/03/11 00:10:59;;;;;;;74.85;50.53;;;;;;;;;;5034228;28;20033;-74
2022/03/11 00:13:25;;;;;;;73.78;47.08;;;;;;;;;;5033912;28;20026;-73
2022/03/11 00:15:52;;;;;;;75.18;48.15;;;;;;;;;;5033829;28;20144;-74
2022/03/11 00:18:20;;;;;;;65.10;43.80;;;;;;;;;;5033977;28;20032;-73
2022/03/11 00:20:46;;;;;;;75.10;50.10;;;;;;;;;;5032554;28;20041;-73
2022/03/11 00:23:12;;;;;;;81.55;50.67;;;;;;;;;;5033555;28;20104;-74
2022/03/11 00:25:39;;;;;;;80.63;53.42;;;;;;;;;;5033708;28;20033;-74
2022/03/11 00:28:05;;;;;;;84.93;56.10;;;;;;;;;;5033796;28;20037;-75
2022/03/11 00:30:31;;;;;;;89.32;59.78;;;;;;;;;;5034038;28;20022;-74
2022/03/11 00:32:58;;;;;;;93.25;63.85;;;;;;;;;;5034002;28;20057;-74
2022/03/11 00:35:24;;;;;;;86.85;58.45;;;;;;;;;;5034301;28;20026;-75
2022/03/11 00:37:50;;;;;;;84.32;54.35;;;;;;;;;;5033919;28;20025;-74
2022/03/11 00:40:17;;;;;;;79.80;53.10;;;;;;;;;;5033004;28;20028;-74
2022/03/11 00:42:43;;;;;;;75.85;48.80;;;;;;;;;;5032340;28;20032;-74
2022/03/11 00:45:10;;;;;;;79.05;53.55;;;;;;;;;;5032873;28;20024;-73
2022/03/11 00:47:37;;;;;;;85.50;56.63;;;;;;;;;;5016343;28;20025;-73
2022/03/11 00:50:04;;;;;;;97.68;63.10;;;;;;;;;;5033537;28;20427;-73
2022/03/11 00:52:31;;;;;;;95.88;63.80;;;;;;;;;;5033744;28;20152;-73
2022/03/11 00:54:57;;;;;;;90.68;60.03;;;;;;;;;;5032256;28;20472;-74
2022/03/11 00:57:23;;;;;;;90.95;58.72;;;;;;;;;;5033375;28;20029;-74
2022/03/11 00:59:49;;;;;;;89.88;56.80;;;;;;;;;;5033455;28;20100;-74
2022/03/11 01:02:17;;;;;;;84.35;55.85;;;;;;;;;;5033455;28;20029;-74
2022/03/11 01:04:43;;;;;;;83.50;53.88;;;;;;;;;;5032310;28;20468;-74
2022/03/11 01:07:10;;;;;;;78.57;51.92;;;;;;;;;;5032390;28;20041;-74
2022/03/11 01:09:36;;;;;;;81.85;52.92;;;;;;;;;;5031782;28;20034;-73
2022/03/11 01:12:02;;;;;;;86.70;56.42;;;;;;;;;;5033045;28;20108;-75
2022/03/11 01:14:28;;;;;;;81.20;52.58;;;;;;;;;;5030302;28;20021;-73
2022/03/11 01:16:55;;;;;;;88.55;53.97;;;;;;;;;;5032914;28;20483;-74
2022/03/11 01:19:21;;;;;;;79.00;53.72;;;;;;;;;;5032058;28;20025;-73
2022/03/11 01:21:47;;;;;;;79.30;51.63;;;;;;;;;;5032850;28;20363;-73
2022/03/11 01:24:14;;;;;;;71.90;46.20;;;;;;;;;;5033136;28;20049;-74
2022/03/11 01:26:40;;;;;;;73.32;45.17;;;;;;;;;;5033582;28;20022;-75
2022/03/11 01:29:06;;;;;;;68.15;44.60;;;;;;;;;;5030898;28;20439;-75
2022/03/11 01:31:32;;;;;;;72.18;43.30;;;;;;;;;;5032992;28;20072;-75
2022/03/11 01:33:59;;;;;;;62.85;41.42;;;;;;;;;;5032773;28;20033;-73
2022/03/11 01:36:25;;;;;;;64.55;40.53;;;;;;;;;;5034169;28;20498;-74
2022/03/11 01:38:53;;;;;;;68.85;41.33;;;;;;;;;;5032777;28;20076;-74
2022/03/11 01:41:19;;;;;;;70.93;43.60;;;;;;;;;;5033183;28;20530;-74
2022/03/11 01:43:58;;;;;;;70.03;44.50;;;;;;;;;;5032672;28;20056;-75
2022/03/11 01:46:25;;;;;;;72.60;44.08;;;;;;;;;;5031436;28;20048;-73
2022/03/11 01:48:51;;;;;;;72.05;43.95;;;;;;;;;;5028933;28;20353;-74
2022/03/11 01:51:18;;;;;;;70.65;44.28;;;;;;;;;;5030537;28;20033;-74
2022/03/11 01:53:45;;;;;;;76.05;44.72;;;;;;;;;;5030897;28;20033;-74
2022/03/11 01:56:12;;;;;;;65.22;41.70;;;;;;;;;;5031551;28;20025;-74
2022/03/11 01:58:39;;;;;;;64.25;41.72;;;;;;;;;;5030812;28;20483;-75
2022/03/11 02:01:06;;;;;;;65.88;39.67;;;;;;;;;;5031970;28;20026;-74
2022/03/11 02:03:32;;;;;;;70.55;42.50;;;;;;;;;;5037119;28;20096;-74
2022/03/11 02:06:02;;;;;;;86.68;51.05;;;;;;;;;;5032706;28;20032;-75
2022/03/11 02:08:30;;;;;;;91.78;51.42;;;;;;;;;;5032508;28;20061;-76
2022/03/11 02:10:57;;;;;;;93.75;52.17;;;;;;;;;;5031521;28;20033;-75
2022/03/11 02:13:23;;;;;;;93.95;51.50;;;;;;;;;;5028768;28;20053;-75
2022/03/11 02:15:49;;;;;;;82.60;47.15;;;;;;;;;;5033099;28;20026;-76
2022/03/11 02:18:16;;;;;;;75.15;45.70;;;;;;;;;;5034039;28;20022;-75
2022/03/11 02:20:42;;;;;;;58.53;37.92;;;;;;;;;;5034370;28;20021;-76
2022/03/11 02:23:11;;;;;;;65.18;39.95;;;;;;;;;;5033636;28;20412;-77
2022/03/11 02:25:40;;;;;;;62.40;39.90;;;;;;;;;;5031261;28;20053;-75
2022/03/11 02:28:06;;;;;;;58.35;38.97;;;;;;;;;;5031857;28;20053;-74
2022/03/11 02:30:33;;;;;;;56.80;35.13;;;;;;;;;;5033907;28;20506;-75
2022/03/11 02:32:59;;;;;;;54.13;33.17;;;;;;;;;;5031826;28;20037;-76
2022/03/11 02:35:25;;;;;;;51.30;30.17;;;;;;;;;;5032396;28;20037;-76
2022/03/11 02:37:51;;;;;;;47.28;31.02;;;;;;;;;;5031417;28;20049;-75
2022/03/11 02:40:18;;;;;;;51.20;31.90;;;;;;;;;;5033691;28;20064;-75
2022/03/11 02:42:44;;;;;;;47.65;31.13;;;;;;;;;;5033140;28;20092;-74
2022/03/11 02:45:10;;;;;;;49.83;30.10;;;;;;;;;;5024161;28;20030;-76
2022/03/11 02:47:37;;;;;;;46.95;30.10;;;;;;;;;;5023304;28;20528;-75
2022/03/11 02:50:05;;;;;;;52.22;31.17;;;;;;;;;;5030218;28;20037;-74
2022/03/11 02:52:31;;;;;;;49.88;31.83;;;;;;;;;;5025487;28;20064;-77
2022/03/11 02:54:58;;;;;;;51.80;33.50;;;;;;;;;;5028253;28;20033;-77
2022/03/11 02:57:24;;;;;;;54.88;36.15;;;;;;;;;;5027566;28;20531;-79
2022/03/11 02:59:50;;;;;;;53.00;33.22;;;;;;;;;;5032098;28;20408;-76
2022/03/11 03:02:17;;;;;;;50.17;30.95;;;;;;;;;;5030912;28;20071;-78
2022/03/11 03:04:43;;;;;;;36.60;24.17;;;;;;;;;;5030187;28;20468;-77
2022/03/11 03:07:11;;;;;;;37.97;24.83;;;;;;;;;;5026770;28;20140;-75
2022/03/11 03:09:41;;;;;;;38.15;23.83;;;;;;;;;;5027092;28;20033;-76
2022/03/11 03:12:09;;;;;;;36.80;22.35;;;;;;;;;;5025177;28;20067;-76
2022/03/11 03:14:35;;;;;;;36.80;23.17;;;;;;;;;;5029510;28;20070;-75
2022/03/11 03:17:02;;;;;;;34.90;22.95;;;;;;;;;;5028816;28;20112;-76
2022/03/11 03:19:28;;;;;;;36.03;21.50;;;;;;;;;;5030277;28;20067;-76
2022/03/11 03:21:54;;;;;;;29.77;18.90;;;;;;;;;;5028065;28;20040;-76
2022/03/11 03:24:22;;;;;;;24.23;17.60;;;;;;;;;;5031520;28;20430;-75
2022/03/11 03:26:48;;;;;;;26.40;18.15;;;;;;;;;;5029104;28;20033;-76
2022/03/11 03:29:14;;;;;;;27.05;18.77;;;;;;;;;;5033790;28;20426;-76
2022/03/11 03:31:40;;;;;;;27.75;17.65;;;;;;;;;;5032604;28;20830;-76
2022/03/11 03:34:07;;;;;;;24.50;17.08;;;;;;;;;;5027462;28;20057;-76
2022/03/11 03:36:33;;;;;;;23.90;17.15;;;;;;;;;;5013729;28;20033;-77
2022/03/11 03:38:59;;;;;;;25.00;17.17;;;;;;;;;;5029264;28;20053;-76
2022/03/11 03:41:25;;;;;;;24.85;18.08;;;;;;;;;;5029348;28;20084;-76
2022/03/11 03:43:52;;;;;;;27.20;18.23;;;;;;;;;;5030332;28;20033;-76
2022/03/11 03:46:18;;;;;;;25.33;17.63;;;;;;;;;;5029529;28;20029;-76
2022/03/11 03:48:44;;;;;;;27.52;19.58;;;;;;;;;;5030677;28;20028;-78
2022/03/11 03:51:11;;;;;;;25.30;17.75;;;;;;;;;;5027175;28;20033;-77
2022/03/11 03:53:37;;;;;;;28.55;19.88;;;;;;;;;;5022627;28;20115;-76
2022/03/11 03:56:03;;;;;;;28.35;19.08;;;;;;;;;;5028396;28;20599;-77
2022/03/11 03:58:30;;;;;;;29.80;20.23;;;;;;;;;;5025722;28;20048;-77
2022/03/11 04:00:56;;;;;;;34.90;20.60;;;;;;;;;;5022591;28;20029;-78
2022/03/11 04:03:22;;;;;;;29.20;19.80;;;;;;;;;;5026899;28;20030;-78
2022/03/11 04:05:49;;;;;;;30.90;18.95;;;;;;;;;;5023222;28;20112;-77
2022/03/11 04:08:15;;;;;;;30.63;18.60;;;;;;;;;;5012380;28;20029;-77
2022/03/11 04:10:42;;;;;;;31.30;18.85;;;;;;;;;;5023451;28;20025;-77
2022/03/11 04:13:08;;;;;;;30.90;19.55;;;;;;;;;;5014939;28;20057;-76
2022/03/11 04:15:34;;;;;;;28.60;19.92;;;;;;;;;;5019590;28;20101;-76
2022/03/11 04:18:00;;;;;;;29.35;18.77;;;;;;;;;;5022573;28;20045;-77
2022/03/11 04:20:27;;;;;;;27.55;20.98;;;;;;;;;;5026473;28;20025;-76
2022/03/11 04:22:54;;;;;;;28.85;20.33;;;;;;;;;;5024044;28;20584;-76
2022/03/11 04:25:20;;;;;;;28.63;19.02;;;;;;;;;;5019447;28;21908;-76
2022/03/11 04:27:46;;;;;;;29.55;20.05;;;;;;;;;;5026419;28;20128;-77
2022/03/11 04:30:13;;;;;;;31.25;18.75;;;;;;;;;;5002512;28;20025;-77
2022/03/11 04:32:39;;;;;;;25.58;18.45;;;;;;;;;;5022557;28;20053;-77
2022/03/11 04:35:07;;;;;;;25.02;19.73;;;;;;;;;;5026542;28;20033;-79
2022/03/11 04:37:33;;;;;;;27.75;18.13;;;;;;;;;;5023953;28;20030;-78
2022/03/11 04:39:59;;;;;;;27.67;20.55;;;;;;;;;;5028819;28;20729;-77
2022/03/11 04:42:26;;;;;;;30.67;19.67;;;;;;;;;;5026906;28;20076;-77
2022/03/11 04:44:52;;;;;;;29.88;19.10;;;;;;;;;;5023796;28;20409;-77
2022/03/11 04:47:19;;;;;;;34.80;20.40;;;;;;;;;;5025654;28;20044;-77
2022/03/11 04:49:45;;;;;;;39.05;22.38;;;;;;;;;;5022948;28;20452;-77
2022/03/11 04:52:11;;;;;;;33.20;20.23;;;;;;;;;;5020067;28;20037;-77
2022/03/11 04:54:38;;;;;;;38.53;21.90;;;;;;;;;;5014880;28;20029;-77
2022/03/11 04:57:04;;;;;;;32.00;18.88;;;;;;;;;;5023181;28;20168;-76
2022/03/11 04:59:30;;;;;;;30.48;20.13;;;;;;;;;;5023641;28;20395;-77
2022/03/11 05:01:56;;;;;;;46.03;22.88;;;;;;;;;;5019298;28;21728;-77
2022/03/11 05:04:23;;;;;;;86.80;35.60;;;;;;;;;;5020021;28;20467;-76
2022/03/11 05:06:49;;;;;;;71.30;31.65;;;;;;;;;;5017116;28;20037;-76
2022/03/11 05:09:15;;;;;;;54.20;28.33;;;;;;;;;;5020772;28;20087;-76
2022/03/11 05:11:42;;;;;;;45.97;21.92;;;;;;;;;;5020575;28;20095;-78
2022/03/11 05:14:08;;;;;;;43.30;21.70;;;;;;;;;;5022420;28;20033;-77
2022/03/11 05:16:34;;;;;;;37.05;26.20;;;;;;;;;;5023896;28;20037;-79
2022/03/11 05:19:00;;;;;;;45.03;22.35;;;;;;;;;;5026375;28;20072;-77
2022/03/11 05:21:27;;;;;;;40.97;24.77;;;;;;;;;;5024403;28;20499;-78
2022/03/11 05:23:53;;;;;;;59.92;30.40;;;;;;;;;;5024794;28;20514;-78
2022/03/11 05:26:25;;;;;;;83.80;39.55;;;;;;;;;;5021567;28;20045;-78
2022/03/11 05:28:53;;;;;;;60.35;34.53;;;;;;;;;;5019282;28;20076;-76
2022/03/11 05:31:19;;;;;;;58.40;37.35;;;;;;;;;;5007764;28;20422;-77
2022/03/11 05:33:45;;;;;;;52.92;35.70;;;;;;;;;;5009914;28;20037;-78
2022/03/11 05:36:12;;;;;;;63.95;41.17;;;;;;;;;;5024715;28;20042;-79
2022/03/11 05:38:38;;;;;;;56.45;33.63;;;;;;;;;;5025105;28;21482;-79
2022/03/11 05:41:04;;;;;;;53.47;36.20;;;;;;;;;;5023749;28;20040;-77
2022/03/11 05:43:31;;;;;;;57.55;41.25;;;;;;;;;;5020975;28;20026;-79
2022/03/11 05:45:57;;;;;;;59.03;37.35;;;;;;;;;;5024859;28;20475;-78
2022/03/11 05:48:23;;;;;;;60.63;35.95;;;;;;;;;;5022169;28;20061;-76
2022/03/11 05:50:49;;;;;;;53.65;32.75;;;;;;;;;;5028581;28;20037;-77
2022/03/11 05:53:16;;;;;;;60.50;33.95;;;;;;;;;;5026616;28;20057;-79
2022/03/11 05:55:42;;;;;;;54.03;35.80;;;;;;;;;;5027313;28;20029;-78
2022/03/11 05:58:08;;;;;;;49.65;33.00;;;;;;;;;;5025245;28;20064;-78
2022/03/11 06:00:35;;;;;;;45.60;31.27;;;;;;;;;;5019513;28;20061;-80
2022/03/11 06:03:01;;;;;;;52.55;35.40;;;;;;;;;;5025175;28;20037;-79
2022/03/11 06:05:27;;;;;;;42.53;31.15;;;;;;;;;;5022547;28;20029;-78
2022/03/11 06:07:54;;;;;;;41.95;29.30;;;;;;;;;;5026339;28;20033;-78
2022/03/11 06:10:21;;;;;;;37.90;24.75;;;;;;;;;;5020541;28;20036;-79
2022/03/11 06:12:47;;;;;;;36.50;24.55;;;;;;;;;;5002718;28;20041;-80
2022/03/11 06:15:14;;;;;;;38.80;29.70;;;;;;;;;;5025632;28;20112;-79
2022/03/11 06:17:41;;;;;;;40.08;27.27;;;;;;;;;;5032014;28;20033;-77
2022/03/11 06:20:08;;;;;;;36.45;23.45;;;;;;;;;;5036279;28;20059;-80
2022/03/11 06:22:38;;;;;;;29.25;21.05;;;;;;;;;;5027705;28;20017;-78
2022/03/11 06:25:05;;;;;;;39.90;24.25;;;;;;;;;;5021646;28;20049;-78
2022/03/11 06:27:31;;;;;;;34.08;24.85;;;;;;;;;;5026346;28;20033;-77
2022/03/11 06:29:58;;;;;;;35.65;23.08;;;;;;;;;;5025260;28;20057;-77
2022/03/11 06:32:24;;;;;;;63.60;44.60;;;;;;;;;;5028093;28;20547;-78
2022/03/11 06:34:50;;;;;;;37.50;24.23;;;;;;;;;;5028286;28;20060;-78
2022/03/11 06:37:17;;;;;;;33.78;21.77;;;;;;;;;;5031069;28;20461;-77
2022/03/11 06:39:44;;;;;;;43.72;28.98;;;;;;;;;;5029424;28;20029;-78
2022/03/11 06:42:10;;;;;;;35.05;24.15;;;;;;;;;;5029914;28;20053;-78
2022/03/11 06:44:36;;;;;;;36.92;24.33;;;;;;;;;;5028113;28;20087;-80
2022/03/11 06:47:03;;;;;;;34.97;21.48;;;;;;;;;;5027948;28;20439;-78
2022/03/11 06:49:29;;;;;;;34.80;23.33;;;;;;;;;;5027746;28;20029;-80
2022/03/11 06:51:55;;;;;;;29.17;20.45;;;;;;;;;;5031114;28;20033;-79
2022/03/11 06:54:22;;;;;;;32.97;18.55;;;;;;;;;;5020384;28;20061;-79
2022/03/11 06:56:49;;;;;;;24.25;17.00;;;;;;;;;;5027906;28;20080;-80
2022/03/11 06:59:15;;;;;;;22.23;13.73;;;;;;;;;;5031181;28;20140;-82
2022/03/11 07:01:44;;;;;;;14.98;10.48;;;;;;;;;;5025739;28;20024;-78
2022/03/11 07:04:10;;;;;;;17.75;9.60;;;;;;;;;;5028266;28;20022;-79
2022/03/11 07:06:36;;;;;;;17.55;10.48;;;;;;;;;;5030749;28;20052;-78
2022/03/11 07:09:03;;;;;;;17.85;10.48;;;;;;;;;;5028858;28;20112;-80
2022/03/11 07:11:32;;;;;;;23.40;14.43;;;;;;;;;;5023736;28;20038;-79
2022/03/11 07:13:59;;;;;;;22.70;14.55;;;;;;;;;;5025984;28;20025;-78
2022/03/11 07:16:25;;;;;;;21.95;13.98;;;;;;;;;;5026695;28;20029;-79
2022/03/11 07:18:51;;;;;;;22.90;15.02;;;;;;;;;;5033245;28;20109;-79
2022/03/11 07:21:17;;;;;;;26.95;13.38;;;;;;;;;;5031165;28;20478;-79
2022/03/11 07:23:44;;;;;;;24.65;14.77;;;;;;;;;;5029731;28;20096;-79
2022/03/11 07:26:10;;;;;;;26.10;13.88;;;;;;;;;;5028177;28;20112;-79
2022/03/11 07:28:36;;;;;;;25.20;14.55;;;;;;;;;;5025662;28;20424;-79
2022/03/11 07:31:03;;;;;;;26.98;16.95;;;;;;;;;;5021650;28;20032;-78
2022/03/11 07:33:29;;;;;;;28.77;15.80;;;;;;;;;;5017988;28;20036;-76
2022/03/11 07:35:55;;;;;;;28.70;15.40;;;;;;;;;;5020538;28;20063;-80
2022/03/11 07:38:24;;;;;;;29.60;17.77;;;;;;;;;;5013547;28;20044;-77
2022/03/11 07:40:50;;;;;;;27.85;15.52;;;;;;;;;;5022848;28;20742;-78
2022/03/11 07:43:17;;;;;;;28.67;15.30;;;;;;;;;;5016250;28;20158;-78
2022/03/11 07:45:43;;;;;;;25.27;14.10;;;;;;;;;;5026188;28;20029;-78
2022/03/11 07:48:09;;;;;;;22.58;12.38;;;;;;;;;;5028155;28;20034;-79
2022/03/11 07:50:35;;;;;;;24.25;15.45;;;;;;;;;;5015408;28;20060;-78
2022/03/11 07:53:02;;;;;;;25.42;14.32;;;;;;;;;;5018541;28;20026;-78
2022/03/11 07:55:28;;;;;;;28.17;16.23;;;;;;;;;;5022948;28;20037;-78
2022/03/11 07:57:55;;;;;;;26.58;15.07;;;;;;;;;;5024251;28;20052;-78
2022/03/11 08:00:21;;;;;;;28.60;17.35;;;;;;;;;;5018109;28;20349;-76
2022/03/11 08:02:47;;;;;;;32.72;19.63;;;;;;;;;;5022328;28;20362;-78
2022/03/11 08:05:14;;;;;;;38.17;22.45;;;;;;;;;;5029720;28;20097;-78
2022/03/11 08:07:44;;;;;;;37.20;25.02;;;;;;;;;;5019467;28;20025;-78
2022/03/11 08:10:10;;;;;;;41.53;25.60;;;;;;;;;;5024323;28;20038;-78
2022/03/11 08:12:36;;;;;;;39.30;25.38;;;;;;;;;;5027145;28;20021;-78
2022/03/11 08:15:06;;;;;;;41.15;24.92;;;;;;;;;;5027427;28;20025;-78
2022/03/11 08:17:33;;;;;;;45.30;26.20;;;;;;;;;;5030247;28;20025;-77
2022/03/11 08:19:59;;;;;;;41.75;25.80;;;;;;;;;;5009543;28;20039;-77
2022/03/11 08:22:26;;;;;;;39.72;25.60;;;;;;;;;;5028749;28;20022;-76
2022/03/11 08:24:52;;;;;;;38.80;24.65;;;;;;;;;;5010567;28;21115;-77
2022/03/11 08:27:19;;;;;;;38.53;27.38;;;;;;;;;;5003103;28;20632;-77
2022/03/11 08:29:45;;;;;;;44.53;30.55;;;;;;;;;;5006262;28;20080;-77
2022/03/11 08:32:12;;;;;;;52.65;33.75;;;;;;;;;;5007325;28;20518;-77
2022/03/11 08:34:38;;;;;;;47.25;27.83;;;;;;;;;;5007121;28;20042;-77
2022/03/11 08:37:06;;;;;;;42.20;24.80;;;;;;;;;;4989097;28;20069;-77
2022/03/11 08:39:43;;;;;;;40.78;25.10;;;;;;;;;;5005659;28;20033;-80
2022/03/11 08:42:18;;;;;;;46.63;29.27;;;;;;;;;;4994022;28;20034;-77
2022/03/11 08:44:44;;;;;;;46.10;35.17;;;;;;;;;;4987479;28;20392;-78
2022/03/11 08:47:12;;;;;;;52.30;31.55;;;;;;;;;;5004837;28;20025;-77
2022/03/11 08:49:38;;;;;;;43.80;33.78;;;;;;;;;;5004276;28;20037;-77
2022/03/11 08:52:05;;;;;;;51.28;34.42;;;;;;;;;;5006217;28;20476;-78
2022/03/11 08:54:31;;;;;;;43.13;30.52;;;;;;;;;;5003704;28;20044;-78
2022/03/11 08:56:59;;;;;;;49.28;34.38;;;;;;;;;;4997705;28;20428;-78
2022/03/11 08:59:26;;;;;;;49.17;33.85;;;;;;;;;;5000082;28;20026;-77
2022/03/11 09:01:52;;;;;;;44.35;29.85;;;;;;;;;;5002515;28;20018;-77
2022/03/11 09:04:20;;;;;;;41.85;30.42;;;;;;;;;;5003101;28;20033;-77
2022/03/11 09:06:46;;;;;;;49.35;36.03;;;;;;;;;;5001473;28;20385;-78
2022/03/11 09:09:14;;;;;;;44.22;31.70;;;;;;;;;;4984609;28;20063;-79
2022/03/11 09:11:41;;;;;;;49.55;36.65;;;;;;;;;;5006528;28;20072;-79
2022/03/11 09:14:07;;;;;;;45.80;33.33;;;;;;;;;;5003198;28;21587;-78
2022/03/11 09:16:34;;;;;;;39.85;26.73;;;;;;;;;;5008437;28;20125;-78
2022/03/11 09:19:01;;;;;;;34.38;24.65;;;;;;;;;;5002489;28;20637;-78
2022/03/11 09:21:28;;;;;;;37.83;28.90;;;;;;;;;;5006348;28;20472;-80
2022/03/11 09:23:54;;;;;;;35.53;23.70;;;;;;;;;;5016479;28;20127;-78
2022/03/11 09:26:21;;;;;;;42.15;28.77;;;;;;;;;;5025231;28;20026;-78
2022/03/11 09:28:47;;;;;;;42.10;30.63;;;;;;;;;;5006908;28;20029;-78
2022/03/11 09:31:14;;;;;;;43.80;24.88;;;;;;;;;;5007840;28;20044;-78
2022/03/11 09:33:41;;;;;;;43.30;30.27;;;;;;;;;;5020752;28;20040;-79
2022/03/11 09:36:07;;;;;;;42.95;29.35;;;;;;;;;;5025450;28;20063;-78
2022/03/11 09:38:36;;;;;;;48.00;28.10;;;;;;;;;;5027056;28;20025;-78
2022/03/11 09:41:03;;;;;;;48.47;31.95;;;;;;;;;;5022828;28;20565;-80
2022/03/11 09:43:30;;;;;;;44.03;29.60;;;;;;;;;;5026718;28;20378;-78
2022/03/11 09:45:57;;;;;;;46.63;32.67;;;;;;;;;;5024256;28;20083;-80
2022/03/11 09:48:24;;;;;;;46.50;30.58;;;;;;;;;;5012721;28;20033;-79
2022/03/11 09:50:50;;;;;;;46.25;29.48;;;;;;;;;;5020427;28;20505;-79
2022/03/11 09:53:16;;;;;;;45.97;31.08;;;;;;;;;;4997252;28;20036;-78
2022/03/11 09:55:44;;;;;;;51.22;35.00;;;;;;;;;;5025864;28;20419;-77
2022/03/11 09:58:10;;;;;;;46.83;31.13;;;;;;;;;;5028893;28;20053;-77
2022/03/11 10:00:37;;;;;;;56.50;35.25;;;;;;;;;;5003518;28;20040;-78
2022/03/11 10:03:04;;;;;;;52.60;34.45;;;;;;;;;;5020851;28;20018;-78
2022/03/11 10:05:46;;;;;;;46.95;35.53;;;;;;;;;;5021196;28;20509;-78
2022/03/11 10:08:13;;;;;;;49.03;32.33;;;;;;;;;;5023273;28;20041;-78
2022/03/11 10:10:39;;;;;;;54.15;36.17;;;;;;;;;;5030249;28;20610;-78
2022/03/11 10:13:09;;;;;;;50.22;35.90;;;;;;;;;;5023951;28;20033;-79
2022/03/11 10:15:36;;;;;;;50.72;37.47;;;;;;;;;;5027157;28;20125;-79
2022/03/11 10:18:03;;;;;;;56.05;35.85;;;;;;;;;;5008716;28;20057;-78
2022/03/11 10:20:32;;;;;;;57.65;36.42;;;;;;;;;;5028310;28;20025;-79
2022/03/11 10:22:58;;;;;;;59.20;38.13;;;;;;;;;;5029608;28;20673;-79
2022/03/11 10:25:28;;;;;;;53.92;35.92;;;;;;;;;;5024088;28;20025;-78
2022/03/11 10:27:57;;;;;;;52.47;38.88;;;;;;;;;;5025469;28;20057;-78
2022/03/11 10:30:24;;;;;;;61.80;39.17;;;;;;;;;;5027685;28;20048;-78
2022/03/11 10:32:54;;;;;;;60.90;37.05;;;;;;;;;;5013614;28;20030;-79
2022/03/11 10:35:21;;;;;;;61.45;43.50;;;;;;;;;;5030199;28;20049;-79
2022/03/11 10:37:57;;;;;;;59.97;39.78;;;;;;;;;;5028423;28;20026;-79
2022/03/11 10:40:24;;;;;;;60.17;39.63;;;;;;;;;;5030308;28;20029;-79
2022/03/11 10:42:53;;;;;;;61.35;40.75;;;;;;;;;;5027365;28;20025;-80
2022/03/11 10:45:19;;;;;;;69.70;41.28;;;;;;;;;;5035928;28;20040;-81
2022/03/11 10:47:46;;;;;;;63.47;43.47;;;;;;;;;;5034799;28;20038;-79
2022/03/11 10:50:15;;;;;;;64.60;43.30;;;;;;;;;;5017064;28;20026;-78
2022/03/11 10:52:46;;;;;;;59.92;38.17;;;;;;;;;;5029501;28;20039;-79
2022/03/11 10:55:46;;;;;;;65.68;44.90;;;;;;;;;;5028247;28;20116;-79
2022/03/11 10:58:16;;;;;;;62.88;43.35;;;;;;;;;;5024195;28;20069;-78
2022/03/11 11:00:43;;;;;;;67.82;45.10;;;;;;;;;;5030857;28;20034;-79
2022/03/11 11:03:10;;;;;;;66.85;45.72;;;;;;;;;;5009242;28;20353;-79
2022/03/11 11:05:37;;;;;;;67.03;45.58;;;;;;;;;;5024682;28;20072;-78
2022/03/11 11:08:07;;;;;;;70.25;42.95;;;;;;;;;;5024251;28;20036;-79
2022/03/11 11:10:35;;;;;;;69.65;50.05;;;;;;;;;;5027412;28;20072;-78
2022/03/11 11:13:01;;;;;;;77.80;54.08;;;;;;;;;;5029413;28;20049;-78
2022/03/11 11:15:27;;;;;;;73.20;50.15;;;;;;;;;;5028698;28;20098;-77
2022/03/11 11:17:54;;;;;;;83.95;59.00;;;;;;;;;;5026053;28;20041;-79
2022/03/11 11:20:40;;;;;;;78.32;55.10;;;;;;;;;;5023631;28;20030;-79
2022/03/11 11:23:07;;;;;;;75.25;55.50;;;;;;;;;;5025067;28;20029;-79
2022/03/11 11:25:35;;;;;;;72.18;50.17;;;;;;;;;;5027310;28;20053;-79
2022/03/11 11:28:21;;;;;;;80.88;54.78;;;;;;;;;;5025360;28;20056;-80
2022/03/11 11:30:48;;;;;;;74.50;52.10;;;;;;;;;;5022278;28;20086;-79
2022/03/11 11:33:15;;;;;;;85.38;55.58;;;;;;;;;;5023848;28;20065;-81
2022/03/11 11:35:43;;;;;;;76.75;51.58;;;;;;;;;;5024571;28;20494;-79
2022/03/11 11:38:27;;;;;;;73.22;48.65;;;;;;;;;;5026962;28;20582;-79
2022/03/11 11:40:54;;;;;;;76.53;48.83;;;;;;;;;;5029838;28;20049;-79
2022/03/11 11:43:30;;;;;;;74.57;50.25;;;;;;;;;;5029400;28;20030;-78
2022/03/11 11:46:02;;;;;;;82.78;55.05;;;;;;;;;;5017293;28;20029;-77
2022/03/11 11:48:35;;;;;;;80.82;50.58;;;;;;;;;;5013168;28;20461;-78
2022/03/11 11:51:03;;;;;;;89.78;55.83;;;;;;;;;;5022887;28;20038;-78
2022/03/11 11:53:33;;;;;;;87.78;59.20;;;;;;;;;;5022885;28;20029;-78
2022/03/11 11:56:00;;;;;;;89.53;55.60;;;;;;;;;;5022557;28;20034;-77
2022/03/11 11:58:27;;;;;;;80.97;50.22;;;;;;;;;;5022092;28;20075;-78
2022/03/11 12:00:57;;;;;;;84.38;55.72;;;;;;;;;;5023555;28;20037;-80
2022/03/11 12:03:42;;;;;;;85.88;57.55;;;;;;;;;;5027176;28;20033;-79
2022/03/11 12:06:08;;;;;;;83.93;53.55;;;;;;;;;;5024099;28;20029;-79
2022/03/11 12:08:37;;;;;;;80.85;53.65;;;;;;;;;;5027332;28;20091;-78
2022/03/11 12:11:03;;;;;;;87.57;53.20;;;;;;;;;;5028123;28;20288;-80
2022/03/11 12:13:33;;;;;;;89.32;52.95;;;;;;;;;;5031126;28;20037;-79
2022/03/11 12:16:00;;;;;;;87.43;51.50;;;;;;;;;;5027666;28;20300;-78
2022/03/11 12:18:37;;;;;;;89.97;52.15;;;;;;;;;;5031325;28;20043;-79
2022/03/11 12:21:04;;;;;;;85.60;51.13;;;;;;;;;;5022251;28;20037;-79
2022/03/11 12:23:32;;;;;;;79.97;49.90;;;;;;;;;;5029645;28;20479;-79
2022/03/11 12:26:07;;;;;;;80.20;52.40;;;;;;;;;;5027651;28;20036;-82
2022/03/11 12:28:35;;;;;;;75.13;46.67;;;;;;;;;;5022005;28;20025;-79
2022/03/11 12:31:02;;;;;;;88.75;50.80;;;;;;;;;;5029680;28;20381;-79
2022/03/11 12:33:35;;;;;;;83.80;51.70;;;;;;;;;;5025035;28;20036;-79
2022/03/11 12:36:03;;;;;;;83.07;52.05;;;;;;;;;;5023197;28;20033;-77
2022/03/11 12:38:34;;;;;;;87.65;50.33;;;;;;;;;;5028281;28;20037;-78
2022/03/11 12:41:16;;;;;;;81.40;50.17;;;;;;;;;;5027263;28;20467;-79
2022/03/11 12:43:43;;;;;;;81.32;50.15;;;;;;;;;;5027735;28;20020;-76
2022/03/11 12:46:10;;;;;;;86.47;50.40;;;;;;;;;;5028811;28;20056;-77
2022/03/11 12:48:37;;;;;;;88.50;50.72;;;;;;;;;;5025048;28;20034;-76
2022/03/11 12:51:04;;;;;;;98.30;55.63;;;;;;;;;;5030709;28;20021;-77
2022/03/11 12:53:31;;;;;;;99.88;55.55;;;;;;;;;;5025510;28;20059;-76
2022/03/11 12:55:58;;;;;;;88.70;51.05;;;;;;;;;;5030076;28;20115;-77
2022/03/11 12:58:30;;;;;;;92.63;54.47;;;;;;;;;;5029469;28;20120;-76
2022/03/11 13:00:59;;;;;;;99.18;57.22;;;;;;;;;;5025164;28;20037;-76
2022/03/11 13:03:27;;;;;;;108.18;61.83;;;;;;;;;;5027080;28;20036;-76
2022/03/11 13:05:53;;;;;;;116.00;68.45;;;;;;;;;;5024997;28;20136;-77
2022/03/11 13:08:20;;;;;;;109.20;65.68;;;;;;;;;;5027370;28;20423;-78
2022/03/11 13:10:47;;;;;;;116.68;67.93;;;;;;;;;;5027112;28;20112;-77
2022/03/11 13:13:14;;;;;;;125.10;69.38;;;;;;;;;;5025204;28;20041;-77
2022/03/11 13:15:45;;;;;;;115.82;72.35;;;;;;;;;;5027413;28;20478;-76
2022/03/11 13:18:22;;;;;;;114.55;71.70;;;;;;;;;;5026749;28;20506;-77
2022/03/11 13:20:56;;;;;;;141.77;77.63;;;;;;;;;;5010143;28;20506;-76
2022/03/11 13:23:31;;;;;;;146.95;83.82;;;;;;;;;;5025505;28;20037;-77
2022/03/11 13:26:00;;;;;;;135.70;81.82;;;;;;;;;;5022809;28;20021;-78
2022/03/11 13:28:31;;;;;;;120.57;78.25;;;;;;;;;;5025584;28;20033;-77
2022/03/11 13:31:22;;;;;;;127.80;77.88;;;;;;;;;;5023341;28;20112;-78
2022/03/11 13:33:50;;;;;;;128.60;81.47;;;;;;;;;;5027629;28;20021;-76
2022/03/11 13:36:18;;;;;;;139.85;83.03;;;;;;;;;;5022592;28;20056;-79
2022/03/11 13:38:50;;;;;;;135.65;81.55;;;;;;;;;;5023696;28;20120;-78
2022/03/11 13:41:29;;;;;;;136.75;87.78;;;;;;;;;;5026899;28;20025;-77
2022/03/11 13:43:57;;;;;;;136.05;83.88;;;;;;;;;;5026175;28;20037;-79
2022/03/11 13:46:27;;;;;;;146.68;92.60;;;;;;;;;;5030248;28;20364;-78
2022/03/11 13:48:58;;;;;;;149.18;95.15;;;;;;;;;;5025840;28;20025;-77
2022/03/11 13:51:39;;;;;;;144.35;90.82;;;;;;;;;;5022856;28;20032;-78
2022/03/11 13:54:05;;;;;;;151.00;96.40;;;;;;;;;;5025549;28;20037;-78
2022/03/11 13:56:37;;;;;;;143.80;90.00;;;;;;;;;;5027962;28;20460;-77
2022/03/11 13:59:07;;;;;;;138.00;90.68;;;;;;;;;;5028527;28;20029;-78
2022/03/11 14:01:37;;;;;;;140.48;84.10;;;;;;;;;;5021899;28;20026;-77
2022/03/11 14:04:17;;;;;;;135.05;81.93;;;;;;;;;;5025640;28;20035;-78
2022/03/11 14:06:43;;;;;;;137.27;87.05;;;;;;;;;;5027536;28;20480;-77
2022/03/11 14:09:11;;;;;;;137.27;85.30;;;;;;;;;;5027206;28;20033;-78
2022/03/11 14:11:37;;;;;;;154.07;92.15;;;;;;;;;;5030545;28;20029;-79
2022/03/11 14:14:22;;;;;;;149.60;94.88;;;;;;;;;;5027053;28;20037;-77
2022/03/11 14:16:58;;;;;;;138.90;85.70;;;;;;;;;;5030305;28;20108;-76
2022/03/11 14:19:24;;;;;;;132.65;81.75;;;;;;;;;;5034285;28;20075;-77